KBBD/BBD METAR and TAF weather

Enter ICAO airport designator
Station Type Date Time Source
KBBD METAR 2020/04/04 05:55 UTC NOAA

KBBD 040555Z AUTO 04009KT 10SM OVC011 06/04 A3005 RMK AO2


Station Type Date Time Source
KBBD Decoded METAR 2020/04/04 05:55 UTC NOAA

Brady, Curtis Field Airport, TX, United States (KBBD) 31-10-45N 099-19-26W
Apr 04, 2020 - 01:55 AM EDT / 2020.04.04 0555 UTC
Wind: from the NE (040 degrees) at 10 MPH (9 KT):0
Visibility: 10 mile(s):0
Sky conditions: overcast
Temperature: 42 F (6 C)
Dew Point: 39 F (4 C)
Relative Humidity: 86%
Pressure (altimeter): 30.05 in. Hg (1017 hPa)
ob: KBBD 040555Z AUTO 04009KT 10SM OVC011 06/04 A3005 RMK AO2
cycle: 6

Station Type Date Time Source
KBBD TAF 2020/04/04 06:39 UTC NOAA

TAF KBBD 040536Z 0406/0506 36012KT P6SM OVC012
FM041200 35010KT 4SM -RA BR OVC007
TEMPO 0414/0418 2SM -TSRA BKN004CB
FM050000 12005KT P6SM OVC007

Example: see airport list